sensor_id;sensor_type;location;lat;lon;timestamp;P1;durP1;ratioP1;P2;durP2;ratioP2
49728;SDS011;35617;50.714;7.114;2022-08-30T00:01:23;8.30;;;3.50;;
49728;SDS011;35617;50.714;7.114;2022-08-30T00:03:52;6.72;;;2.95;;
49728;SDS011;35617;50.714;7.114;2022-08-30T00:06:19;7.53;;;3.25;;
49728;SDS011;35617;50.714;7.114;2022-08-30T00:08:45;7.53;;;3.42;;
49728;SDS011;35617;50.714;7.114;2022-08-30T00:11:16;7.47;;;3.17;;
49728;SDS011;35617;50.714;7.114;2022-08-30T00:13:45;7.63;;;3.30;;
49728;SDS011;35617;50.714;7.114;2022-08-30T00:16:13;7.15;;;3.55;;
49728;SDS011;35617;50.714;7.114;2022-08-30T00:18:40;8.60;;;3.50;;
49728;SDS011;35617;50.714;7.114;2022-08-30T00:21:06;7.05;;;2.97;;
49728;SDS011;35617;50.714;7.114;2022-08-30T00:23:32;7.00;;;3.03;;
49728;SDS011;35617;50.714;7.114;2022-08-30T00:25:58;6.70;;;3.17;;
49728;SDS011;35617;50.714;7.114;2022-08-30T00:28:24;6.85;;;3.05;;
49728;SDS011;35617;50.714;7.114;2022-08-30T00:30:49;7.82;;;3.20;;
49728;SDS011;35617;50.714;7.114;2022-08-30T00:33:15;8.00;;;3.00;;
49728;SDS011;35617;50.714;7.114;2022-08-30T00:35:41;6.97;;;3.08;;
49728;SDS011;35617;50.714;7.114;2022-08-30T00:38:08;7.05;;;3.40;;
49728;SDS011;35617;50.714;7.114;2022-08-30T00:40:35;6.35;;;3.15;;
49728;SDS011;35617;50.714;7.114;2022-08-30T00:43:02;7.88;;;3.22;;
49728;SDS011;35617;50.714;7.114;2022-08-30T00:45:35;7.95;;;3.17;;
49728;SDS011;35617;50.714;7.114;2022-08-30T00:48:02;7.03;;;2.90;;
49728;SDS011;35617;50.714;7.114;2022-08-30T00:50:33;7.38;;;3.20;;
49728;SDS011;35617;50.714;7.114;2022-08-30T00:53:04;9.25;;;3.88;;
49728;SDS011;35617;50.714;7.114;2022-08-30T00:55:32;6.97;;;3.05;;
49728;SDS011;35617;50.714;7.114;2022-08-30T00:57:59;7.38;;;3.00;;
49728;SDS011;35617;50.714;7.114;2022-08-30T01:00:27;8.00;;;3.10;;
49728;SDS011;35617;50.714;7.114;2022-08-30T01:02:53;7.65;;;3.45;;
49728;SDS011;35617;50.714;7.114;2022-08-30T01:05:19;6.15;;;3.10;;
49728;SDS011;35617;50.714;7.114;2022-08-30T01:07:45;6.38;;;3.05;;
49728;SDS011;35617;50.714;7.114;2022-08-30T01:10:11;7.35;;;3.40;;
49728;SDS011;35617;50.714;7.114;2022-08-30T01:12:39;8.10;;;3.20;;
49728;SDS011;35617;50.714;7.114;2022-08-30T01:15:06;7.38;;;3.33;;
49728;SDS011;35617;50.714;7.114;2022-08-30T01:17:33;7.40;;;3.20;;
49728;SDS011;35617;50.714;7.114;2022-08-30T01:20:00;7.18;;;3.30;;
49728;SDS011;35617;50.714;7.114;2022-08-30T01:23:09;6.45;;;3.25;;
49728;SDS011;35617;50.714;7.114;2022-08-30T01:25:38;6.20;;;2.83;;
49728;SDS011;35617;50.714;7.114;2022-08-30T01:28:08;5.80;;;3.00;;
49728;SDS011;35617;50.714;7.114;2022-08-30T01:30:37;6.15;;;3.15;;
49728;SDS011;35617;50.714;7.114;2022-08-30T01:33:05;7.78;;;3.42;;
49728;SDS011;35617;50.714;7.114;2022-08-30T01:35:42;7.13;;;3.13;;
49728;SDS011;35617;50.714;7.114;2022-08-30T01:38:13;6.15;;;2.83;;
49728;SDS011;35617;50.714;7.114;2022-08-30T01:40:41;7.35;;;3.25;;
49728;SDS011;35617;50.714;7.114;2022-08-30T01:43:07;7.88;;;3.33;;
49728;SDS011;35617;50.714;7.114;2022-08-30T01:45:35;6.35;;;3.15;;
49728;SDS011;35617;50.714;7.114;2022-08-30T01:48:00;6.95;;;3.00;;
49728;SDS011;35617;50.714;7.114;2022-08-30T01:50:26;7.43;;;3.00;;
49728;SDS011;35617;50.714;7.114;2022-08-30T01:52:52;5.80;;;2.85;;
49728;SDS011;35617;50.714;7.114;2022-08-30T01:55:17;7.30;;;3.13;;
49728;SDS011;35617;50.714;7.114;2022-08-30T01:57:43;7.68;;;2.97;;
49728;SDS011;35617;50.714;7.114;2022-08-30T02:00:09;6.93;;;3.42;;
49728;SDS011;35617;50.714;7.114;2022-08-30T02:02:35;7.07;;;2.90;;
49728;SDS011;35617;50.714;7.114;2022-08-30T02:05:00;7.80;;;3.10;;
49728;SDS011;35617;50.714;7.114;2022-08-30T02:07:26;7.32;;;3.28;;
49728;SDS011;35617;50.714;7.114;2022-08-30T02:09:52;7.93;;;3.38;;
49728;SDS011;35617;50.714;7.114;2022-08-30T02:12:18;6.22;;;2.83;;
49728;SDS011;35617;50.714;7.114;2022-08-30T02:14:44;8.55;;;4.30;;
49728;SDS011;35617;50.714;7.114;2022-08-30T02:17:10;7.88;;;3.80;;
49728;SDS011;35617;50.714;7.114;2022-08-30T02:19:37;7.75;;;3.30;;
49728;SDS011;35617;50.714;7.114;2022-08-30T02:22:03;5.65;;;3.03;;
49728;SDS011;35617;50.714;7.114;2022-08-30T02:24:30;5.90;;;3.03;;
49728;SDS011;35617;50.714;7.114;2022-08-30T02:26:56;8.18;;;2.92;;
49728;SDS011;35617;50.714;7.114;2022-08-30T02:29:22;7.28;;;3.15;;
49728;SDS011;35617;50.714;7.114;2022-08-30T02:31:48;6.47;;;3.40;;
49728;SDS011;35617;50.714;7.114;2022-08-30T02:34:14;7.50;;;2.90;;
49728;SDS011;35617;50.714;7.114;2022-08-30T02:36:41;6.65;;;2.72;;
49728;SDS011;35617;50.714;7.114;2022-08-30T02:39:07;6.07;;;3.10;;
49728;SDS011;35617;50.714;7.114;2022-08-30T02:41:34;6.95;;;2.90;;
49728;SDS011;35617;50.714;7.114;2022-08-30T02:44:00;7.53;;;3.20;;
49728;SDS011;35617;50.714;7.114;2022-08-30T02:46:26;7.50;;;3.20;;
49728;SDS011;35617;50.714;7.114;2022-08-30T02:48:52;5.60;;;2.90;;
49728;SDS011;35617;50.714;7.114;2022-08-30T02:51:18;7.00;;;2.97;;
49728;SDS011;35617;50.714;7.114;2022-08-30T02:53:44;6.68;;;3.05;;
49728;SDS011;35617;50.714;7.114;2022-08-30T02:56:10;7.82;;;3.13;;
49728;SDS011;35617;50.714;7.114;2022-08-30T02:58:37;7.55;;;3.10;;
49728;SDS011;35617;50.714;7.114;2022-08-30T03:01:04;6.85;;;3.13;;
49728;SDS011;35617;50.714;7.114;2022-08-30T03:03:30;8.48;;;3.10;;
49728;SDS011;35617;50.714;7.114;2022-08-30T03:05:56;5.93;;;2.97;;
49728;SDS011;35617;50.714;7.114;2022-08-30T03:08:22;8.25;;;3.20;;
49728;SDS011;35617;50.714;7.114;2022-08-30T03:10:47;6.95;;;3.42;;
49728;SDS011;35617;50.714;7.114;2022-08-30T03:13:14;6.10;;;2.78;;
49728;SDS011;35617;50.714;7.114;2022-08-30T03:15:39;7.15;;;3.28;;
49728;SDS011;35617;50.714;7.114;2022-08-30T03:18:05;8.45;;;3.35;;
49728;SDS011;35617;50.714;7.114;2022-08-30T03:20:31;6.40;;;3.00;;
49728;SDS011;35617;50.714;7.114;2022-08-30T03:22:59;6.40;;;2.90;;
49728;SDS011;35617;50.714;7.114;2022-08-30T03:25:24;8.32;;;2.95;;
49728;SDS011;35617;50.714;7.114;2022-08-30T03:27:50;7.15;;;3.10;;
49728;SDS011;35617;50.714;7.114;2022-08-30T03:30:17;6.95;;;3.30;;
49728;SDS011;35617;50.714;7.114;2022-08-30T03:32:44;8.32;;;3.47;;
49728;SDS011;35617;50.714;7.114;2022-08-30T03:35:10;7.63;;;3.28;;
49728;SDS011;35617;50.714;7.114;2022-08-30T03:37:36;9.38;;;3.53;;
49728;SDS011;35617;50.714;7.114;2022-08-30T03:40:03;10.23;;;3.75;;
49728;SDS011;35617;50.714;7.114;2022-08-30T03:42:29;6.50;;;3.42;;
49728;SDS011;35617;50.714;7.114;2022-08-30T03:44:54;8.20;;;2.97;;
49728;SDS011;35617;50.714;7.114;2022-08-30T03:47:20;7.90;;;3.45;;
49728;SDS011;35617;50.714;7.114;2022-08-30T03:49:46;7.60;;;3.30;;
49728;SDS011;35617;50.714;7.114;2022-08-30T03:52:11;7.80;;;3.50;;
49728;SDS011;35617;50.714;7.114;2022-08-30T03:54:37;7.40;;;3.08;;
49728;SDS011;35617;50.714;7.114;2022-08-30T03:57:04;6.57;;;3.13;;
49728;SDS011;35617;50.714;7.114;2022-08-30T03:59:30;7.03;;;3.80;;
49728;SDS011;35617;50.714;7.114;2022-08-30T04:01:56;8.48;;;3.50;;
49728;SDS011;35617;50.714;7.114;2022-08-30T04:04:23;7.50;;;2.90;;
49728;SDS011;35617;50.714;7.114;2022-08-30T04:06:49;7.10;;;3.30;;
49728;SDS011;35617;50.714;7.114;2022-08-30T04:09:15;6.47;;;3.33;;
49728;SDS011;35617;50.714;7.114;2022-08-30T04:11:41;7.13;;;3.38;;
49728;SDS011;35617;50.714;7.114;2022-08-30T04:14:07;8.93;;;3.50;;
49728;SDS011;35617;50.714;7.114;2022-08-30T04:16:33;6.95;;;3.58;;
49728;SDS011;35617;50.714;7.114;2022-08-30T04:18:58;7.47;;;3.55;;
49728;SDS011;35617;50.714;7.114;2022-08-30T04:21:24;9.30;;;3.50;;
49728;SDS011;35617;50.714;7.114;2022-08-30T04:23:50;6.60;;;3.47;;
49728;SDS011;35617;50.714;7.114;2022-08-30T04:26:16;8.35;;;4.18;;
49728;SDS011;35617;50.714;7.114;2022-08-30T04:28:41;9.55;;;4.43;;
49728;SDS011;35617;50.714;7.114;2022-08-30T04:31:11;8.48;;;3.80;;
49728;SDS011;35617;50.714;7.114;2022-08-30T04:33:39;7.43;;;3.40;;
49728;SDS011;35617;50.714;7.114;2022-08-30T04:36:06;6.22;;;3.17;;
49728;SDS011;35617;50.714;7.114;2022-08-30T04:38:34;8.18;;;3.97;;
49728;SDS011;35617;50.714;7.114;2022-08-30T04:41:01;8.00;;;3.40;;
49728;SDS011;35617;50.714;7.114;2022-08-30T04:43:27;5.80;;;2.92;;
49728;SDS011;35617;50.714;7.114;2022-08-30T04:45:53;7.88;;;3.60;;
49728;SDS011;35617;50.714;7.114;2022-08-30T04:48:19;6.32;;;3.20;;
49728;SDS011;35617;50.714;7.114;2022-08-30T04:50:46;9.15;;;3.63;;
49728;SDS011;35617;50.714;7.114;2022-08-30T04:53:12;8.73;;;3.90;;
49728;SDS011;35617;50.714;7.114;2022-08-30T04:55:39;10.18;;;3.65;;
49728;SDS011;35617;50.714;7.114;2022-08-30T04:58:06;7.38;;;3.50;;
49728;SDS011;35617;50.714;7.114;2022-08-30T05:00:32;9.57;;;4.20;;
49728;SDS011;35617;50.714;7.114;2022-08-30T05:02:58;6.93;;;3.67;;
49728;SDS011;35617;50.714;7.114;2022-08-30T05:05:24;8.23;;;3.47;;
49728;SDS011;35617;50.714;7.114;2022-08-30T05:08:15;8.18;;;4.25;;
49728;SDS011;35617;50.714;7.114;2022-08-30T05:10:46;9.27;;;3.75;;
49728;SDS011;35617;50.714;7.114;2022-08-30T05:13:15;6.85;;;3.55;;
49728;SDS011;35617;50.714;7.114;2022-08-30T05:15:42;7.63;;;3.75;;
49728;SDS011;35617;50.714;7.114;2022-08-30T05:18:08;7.85;;;3.42;;
49728;SDS011;35617;50.714;7.114;2022-08-30T05:20:35;7.43;;;3.28;;
49728;SDS011;35617;50.714;7.114;2022-08-30T05:23:02;7.10;;;3.35;;
49728;SDS011;35617;50.714;7.114;2022-08-30T05:25:29;14.32;;;3.85;;
49728;SDS011;35617;50.714;7.114;2022-08-30T05:27:56;7.03;;;3.50;;
49728;SDS011;35617;50.714;7.114;2022-08-30T05:30:22;7.47;;;3.72;;
49728;SDS011;35617;50.714;7.114;2022-08-30T05:32:49;8.57;;;3.20;;
49728;SDS011;35617;50.714;7.114;2022-08-30T05:35:15;8.93;;;3.90;;
49728;SDS011;35617;50.714;7.114;2022-08-30T05:37:42;8.50;;;3.85;;
49728;SDS011;35617;50.714;7.114;2022-08-30T05:40:08;7.05;;;3.50;;
49728;SDS011;35617;50.714;7.114;2022-08-30T05:42:35;9.32;;;3.92;;
49728;SDS011;35617;50.714;7.114;2022-08-30T05:45:01;10.63;;;3.60;;
49728;SDS011;35617;50.714;7.114;2022-08-30T05:47:28;9.20;;;3.78;;
49728;SDS011;35617;50.714;7.114;2022-08-30T05:49:53;10.05;;;3.90;;
49728;SDS011;35617;50.714;7.114;2022-08-30T05:52:19;11.80;;;4.18;;
49728;SDS011;35617;50.714;7.114;2022-08-30T05:54:45;10.48;;;4.30;;
49728;SDS011;35617;50.714;7.114;2022-08-30T05:57:16;9.98;;;3.92;;
49728;SDS011;35617;50.714;7.114;2022-08-30T05:59:42;8.75;;;3.40;;
49728;SDS011;35617;50.714;7.114;2022-08-30T06:02:08;7.78;;;3.47;;
49728;SDS011;35617;50.714;7.114;2022-08-30T06:04:34;6.90;;;3.20;;
49728;SDS011;35617;50.714;7.114;2022-08-30T06:07:00;7.63;;;3.40;;
49728;SDS011;35617;50.714;7.114;2022-08-30T06:09:27;8.32;;;3.40;;
49728;SDS011;35617;50.714;7.114;2022-08-30T06:11:53;7.82;;;3.42;;
49728;SDS011;35617;50.714;7.114;2022-08-30T06:14:19;7.25;;;3.20;;
49728;SDS011;35617;50.714;7.114;2022-08-30T06:16:44;8.93;;;3.42;;
49728;SDS011;35617;50.714;7.114;2022-08-30T06:19:11;9.82;;;3.72;;
49728;SDS011;35617;50.714;7.114;2022-08-30T06:21:38;8.77;;;3.03;;
49728;SDS011;35617;50.714;7.114;2022-08-30T06:24:06;7.72;;;3.45;;
49728;SDS011;35617;50.714;7.114;2022-08-30T06:26:35;9.73;;;3.70;;
49728;SDS011;35617;50.714;7.114;2022-08-30T06:29:04;10.73;;;4.07;;
49728;SDS011;35617;50.714;7.114;2022-08-30T06:31:30;9.48;;;3.95;;
49728;SDS011;35617;50.714;7.114;2022-08-30T06:33:55;8.50;;;3.67;;
49728;SDS011;35617;50.714;7.114;2022-08-30T06:36:22;8.60;;;3.72;;
49728;SDS011;35617;50.714;7.114;2022-08-30T06:38:49;8.82;;;3.70;;
49728;SDS011;35617;50.714;7.114;2022-08-30T06:41:21;8.40;;;3.70;;
49728;SDS011;35617;50.714;7.114;2022-08-30T06:43:48;8.52;;;3.63;;
49728;SDS011;35617;50.714;7.114;2022-08-30T06:46:16;7.28;;;3.65;;
49728;SDS011;35617;50.714;7.114;2022-08-30T06:49:02;8.85;;;3.22;;
49728;SDS011;35617;50.714;7.114;2022-08-30T06:51:30;10.50;;;3.80;;
49728;SDS011;35617;50.714;7.114;2022-08-30T06:53:59;8.07;;;3.35;;
49728;SDS011;35617;50.714;7.114;2022-08-30T06:56:25;10.35;;;4.05;;
49728;SDS011;35617;50.714;7.114;2022-08-30T06:58:51;13.23;;;3.75;;
49728;SDS011;35617;50.714;7.114;2022-08-30T07:01:18;9.38;;;3.65;;
49728;SDS011;35617;50.714;7.114;2022-08-30T07:03:46;7.28;;;3.45;;
49728;SDS011;35617;50.714;7.114;2022-08-30T07:06:13;7.60;;;3.30;;
49728;SDS011;35617;50.714;7.114;2022-08-30T07:08:39;9.05;;;3.45;;
49728;SDS011;35617;50.714;7.114;2022-08-30T07:11:05;12.82;;;4.00;;
49728;SDS011;35617;50.714;7.114;2022-08-30T07:13:33;8.27;;;3.30;;
49728;SDS011;35617;50.714;7.114;2022-08-30T07:15:59;9.65;;;3.60;;
49728;SDS011;35617;50.714;7.114;2022-08-30T07:18:25;11.13;;;3.35;;
49728;SDS011;35617;50.714;7.114;2022-08-30T07:21:14;9.25;;;3.75;;
49728;SDS011;35617;50.714;7.114;2022-08-30T07:23:41;7.80;;;3.40;;
49728;SDS011;35617;50.714;7.114;2022-08-30T07:26:08;8.88;;;3.50;;
49728;SDS011;35617;50.714;7.114;2022-08-30T07:28:37;6.80;;;3.42;;
49728;SDS011;35617;50.714;7.114;2022-08-30T07:31:04;9.27;;;3.40;;
49728;SDS011;35617;50.714;7.114;2022-08-30T07:33:30;12.07;;;3.22;;
49728;SDS011;35617;50.714;7.114;2022-08-30T07:35:56;7.35;;;3.10;;
49728;SDS011;35617;50.714;7.114;2022-08-30T07:38:23;8.27;;;3.20;;
49728;SDS011;35617;50.714;7.114;2022-08-30T07:40:51;11.55;;;3.30;;
49728;SDS011;35617;50.714;7.114;2022-08-30T07:43:17;11.68;;;3.45;;
49728;SDS011;35617;50.714;7.114;2022-08-30T07:45:43;6.75;;;2.88;;
49728;SDS011;35617;50.714;7.114;2022-08-30T07:48:09;7.25;;;2.90;;
49728;SDS011;35617;50.714;7.114;2022-08-30T07:50:37;7.78;;;3.08;;
49728;SDS011;35617;50.714;7.114;2022-08-30T07:53:06;11.68;;;3.03;;
49728;SDS011;35617;50.714;7.114;2022-08-30T07:55:32;7.78;;;2.53;;
49728;SDS011;35617;50.714;7.114;2022-08-30T07:57:58;9.68;;;2.70;;
49728;SDS011;35617;50.714;7.114;2022-08-30T08:00:23;10.68;;;3.35;;
49728;SDS011;35617;50.714;7.114;2022-08-30T08:02:49;7.05;;;2.63;;
49728;SDS011;35617;50.714;7.114;2022-08-30T08:05:14;10.82;;;3.10;;
49728;SDS011;35617;50.714;7.114;2022-08-30T08:07:40;7.68;;;3.17;;
49728;SDS011;35617;50.714;7.114;2022-08-30T08:10:06;8.88;;;3.00;;
49728;SDS011;35617;50.714;7.114;2022-08-30T08:12:32;7.82;;;2.75;;
49728;SDS011;35617;50.714;7.114;2022-08-30T08:14:58;6.75;;;2.90;;
49728;SDS011;35617;50.714;7.114;2022-08-30T08:17:24;7.68;;;2.72;;
49728;SDS011;35617;50.714;7.114;2022-08-30T08:19:49;7.22;;;2.60;;
49728;SDS011;35617;50.714;7.114;2022-08-30T08:22:15;7.10;;;2.60;;
49728;SDS011;35617;50.714;7.114;2022-08-30T08:24:41;6.38;;;2.65;;
49728;SDS011;35617;50.714;7.114;2022-08-30T08:27:06;8.20;;;2.92;;
49728;SDS011;35617;50.714;7.114;2022-08-30T08:29:32;7.05;;;2.97;;
49728;SDS011;35617;50.714;7.114;2022-08-30T08:31:58;6.50;;;2.60;;
49728;SDS011;35617;50.714;7.114;2022-08-30T08:34:24;7.50;;;2.67;;
49728;SDS011;35617;50.714;7.114;2022-08-30T08:36:51;7.75;;;3.35;;
49728;SDS011;35617;50.714;7.114;2022-08-30T08:39:17;8.15;;;2.60;;
49728;SDS011;35617;50.714;7.114;2022-08-30T08:49:41;7.32;;;3.00;;
49728;SDS011;35617;50.714;7.114;2022-08-30T08:52:11;5.57;;;2.40;;
49728;SDS011;35617;50.714;7.114;2022-08-30T08:55:09;6.63;;;2.45;;
49728;SDS011;35617;50.714;7.114;2022-08-30T08:57:37;10.70;;;2.70;;
49728;SDS011;35617;50.714;7.114;2022-08-30T09:00:04;7.70;;;2.47;;
49728;SDS011;35617;50.714;7.114;2022-08-30T09:02:34;9.40;;;2.80;;
49728;SDS011;35617;50.714;7.114;2022-08-30T09:05:22;6.57;;;2.28;;
49728;SDS011;35617;50.714;7.114;2022-08-30T09:08:01;10.18;;;2.85;;
49728;SDS011;35617;50.714;7.114;2022-08-30T09:10:32;6.78;;;2.60;;
49728;SDS011;35617;50.714;7.114;2022-08-30T09:12:59;6.15;;;2.40;;
49728;SDS011;35617;50.714;7.114;2022-08-30T09:15:29;6.30;;;2.80;;
49728;SDS011;35617;50.714;7.114;2022-08-30T09:17:58;6.93;;;2.75;;
49728;SDS011;35617;50.714;7.114;2022-08-30T09:20:33;7.10;;;2.55;;
49728;SDS011;35617;50.714;7.114;2022-08-30T09:25:59;7.93;;;3.15;;
49728;SDS011;35617;50.714;7.114;2022-08-30T09:28:47;5.75;;;2.45;;
49728;SDS011;35617;50.714;7.114;2022-08-30T09:34:00;9.18;;;3.00;;
49728;SDS011;35617;50.714;7.114;2022-08-30T09:36:43;7.35;;;2.47;;
49728;SDS011;35617;50.714;7.114;2022-08-30T09:41:49;6.68;;;2.78;;
49728;SDS011;35617;50.714;7.114;2022-08-30T09:46:49;6.55;;;2.90;;
49728;SDS011;35617;50.714;7.114;2022-08-30T09:49:37;6.35;;;2.60;;
49728;SDS011;35617;50.714;7.114;2022-08-30T09:55:26;8.65;;;2.40;;
49728;SDS011;35617;50.714;7.114;2022-08-30T09:57:38;7.25;;;2.67;;
49728;SDS011;35617;50.714;7.114;2022-08-30T10:00:19;7.45;;;3.08;;
49728;SDS011;35617;50.714;7.114;2022-08-30T10:02:54;6.30;;;2.60;;
49728;SDS011;35617;50.714;7.114;2022-08-30T10:08:16;6.30;;;2.50;;
49728;SDS011;35617;50.714;7.114;2022-08-30T10:10:48;5.85;;;2.70;;
49728;SDS011;35617;50.714;7.114;2022-08-30T10:18:50;7.75;;;3.08;;
49728;SDS011;35617;50.714;7.114;2022-08-30T10:21:25;4.70;;;2.28;;
49728;SDS011;35617;50.714;7.114;2022-08-30T10:24:04;5.00;;;2.20;;
49728;SDS011;35617;50.714;7.114;2022-08-30T10:26:37;6.68;;;2.50;;
49728;SDS011;35617;50.714;7.114;2022-08-30T10:29:12;5.63;;;2.30;;
49728;SDS011;35617;50.714;7.114;2022-08-30T10:31:47;5.57;;;2.35;;
49728;SDS011;35617;50.714;7.114;2022-08-30T10:34:25;5.85;;;2.60;;
49728;SDS011;35617;50.714;7.114;2022-08-30T10:37:25;5.43;;;2.60;;
49728;SDS011;35617;50.714;7.114;2022-08-30T10:39:55;7.57;;;2.60;;
49728;SDS011;35617;50.714;7.114;2022-08-30T10:42:46;7.35;;;2.80;;
49728;SDS011;35617;50.714;7.114;2022-08-30T10:45:14;5.78;;;2.53;;
49728;SDS011;35617;50.714;7.114;2022-08-30T10:47:45;7.85;;;2.70;;
49728;SDS011;35617;50.714;7.114;2022-08-30T10:50:21;5.75;;;2.60;;
49728;SDS011;35617;50.714;7.114;2022-08-30T10:52:57;5.97;;;2.55;;
49728;SDS011;35617;50.714;7.114;2022-08-30T10:58:17;5.57;;;2.60;;
49728;SDS011;35617;50.714;7.114;2022-08-30T11:06:07;6.15;;;2.25;;
49728;SDS011;35617;50.714;7.114;2022-08-30T11:11:36;5.70;;;2.50;;
49728;SDS011;35617;50.714;7.114;2022-08-30T11:14:23;5.57;;;2.65;;
49728;SDS011;35617;50.714;7.114;2022-08-30T11:16:50;6.95;;;2.60;;
49728;SDS011;35617;50.714;7.114;2022-08-30T11:19:23;5.57;;;2.80;;
49728;SDS011;35617;50.714;7.114;2022-08-30T11:21:49;6.63;;;2.95;;
49728;SDS011;35617;50.714;7.114;2022-08-30T11:24:16;5.13;;;2.47;;
49728;SDS011;35617;50.714;7.114;2022-08-30T11:32:21;4.68;;;2.42;;
49728;SDS011;35617;50.714;7.114;2022-08-30T11:37:37;6.13;;;2.40;;
49728;SDS011;35617;50.714;7.114;2022-08-30T11:40:06;6.15;;;2.90;;
49728;SDS011;35617;50.714;7.114;2022-08-30T11:42:41;7.68;;;2.83;;
49728;SDS011;35617;50.714;7.114;2022-08-30T11:47:51;6.18;;;2.80;;
49728;SDS011;35617;50.714;7.114;2022-08-30T11:50:25;7.93;;;2.90;;
49728;SDS011;35617;50.714;7.114;2022-08-30T11:55:27;5.82;;;2.58;;
49728;SDS011;35617;50.714;7.114;2022-08-30T12:03:57;7.47;;;2.80;;
49728;SDS011;35617;50.714;7.114;2022-08-30T12:09:07;5.50;;;2.85;;
49728;SDS011;35617;50.714;7.114;2022-08-30T12:14:02;6.45;;;3.10;;
49728;SDS011;35617;50.714;7.114;2022-08-30T12:19:24;8.02;;;2.75;;
49728;SDS011;35617;50.714;7.114;2022-08-30T12:21:54;6.80;;;2.88;;
49728;SDS011;35617;50.714;7.114;2022-08-30T12:24:37;6.72;;;2.42;;
49728;SDS011;35617;50.714;7.114;2022-08-30T12:27:20;5.43;;;2.75;;
49728;SDS011;35617;50.714;7.114;2022-08-30T12:29:53;6.85;;;2.70;;
49728;SDS011;35617;50.714;7.114;2022-08-30T12:32:20;6.50;;;2.63;;
49728;SDS011;35617;50.714;7.114;2022-08-30T12:34:51;5.40;;;2.70;;
49728;SDS011;35617;50.714;7.114;2022-08-30T12:40:01;6.68;;;2.80;;
49728;SDS011;35617;50.714;7.114;2022-08-30T12:42:33;5.57;;;2.55;;
49728;SDS011;35617;50.714;7.114;2022-08-30T12:45:04;6.22;;;2.97;;
49728;SDS011;35617;50.714;7.114;2022-08-30T12:47:46;7.35;;;3.05;;
49728;SDS011;35617;50.714;7.114;2022-08-30T12:50:14;6.53;;;2.70;;
49728;SDS011;35617;50.714;7.114;2022-08-30T12:52:46;5.88;;;3.00;;
49728;SDS011;35617;50.714;7.114;2022-08-30T12:55:21;5.35;;;2.63;;
49728;SDS011;35617;50.714;7.114;2022-08-30T12:58:50;6.72;;;2.97;;
49728;SDS011;35617;50.714;7.114;2022-08-30T13:01:10;7.70;;;3.10;;
49728;SDS011;35617;50.714;7.114;2022-08-30T13:03:56;5.57;;;2.58;;
49728;SDS011;35617;50.714;7.114;2022-08-30T13:09:07;8.88;;;2.90;;
49728;SDS011;35617;50.714;7.114;2022-08-30T13:11:35;5.95;;;2.80;;
49728;SDS011;35617;50.714;7.114;2022-08-30T13:19:42;7.35;;;2.53;;
49728;SDS011;35617;50.714;7.114;2022-08-30T13:22:26;5.38;;;2.60;;
49728;SDS011;35617;50.714;7.114;2022-08-30T13:24:56;6.90;;;2.90;;
49728;SDS011;35617;50.714;7.114;2022-08-30T13:27:23;5.63;;;3.05;;
49728;SDS011;35617;50.714;7.114;2022-08-30T13:29:48;6.10;;;2.70;;
49728;SDS011;35617;50.714;7.114;2022-08-30T13:32:14;5.00;;;2.72;;
49728;SDS011;35617;50.714;7.114;2022-08-30T13:34:41;6.95;;;3.00;;
49728;SDS011;35617;50.714;7.114;2022-08-30T13:37:09;8.40;;;3.10;;
49728;SDS011;35617;50.714;7.114;2022-08-30T13:39:45;6.50;;;2.83;;
49728;SDS011;35617;50.714;7.114;2022-08-30T13:42:11;6.07;;;2.92;;
49728;SDS011;35617;50.714;7.114;2022-08-30T13:44:36;8.63;;;3.25;;
49728;SDS011;35617;50.714;7.114;2022-08-30T13:47:02;5.28;;;2.90;;
49728;SDS011;35617;50.714;7.114;2022-08-30T13:49:30;5.65;;;2.60;;
49728;SDS011;35617;50.714;7.114;2022-08-30T13:51:59;6.03;;;2.63;;
49728;SDS011;35617;50.714;7.114;2022-08-30T13:54:28;7.88;;;2.80;;
49728;SDS011;35617;50.714;7.114;2022-08-30T13:56:54;6.45;;;3.10;;
49728;SDS011;35617;50.714;7.114;2022-08-30T13:59:20;7.10;;;2.80;;
49728;SDS011;35617;50.714;7.114;2022-08-30T14:01:47;6.70;;;2.60;;
49728;SDS011;35617;50.714;7.114;2022-08-30T14:04:14;6.50;;;4.05;;
49728;SDS011;35617;50.714;7.114;2022-08-30T14:06:40;7.63;;;2.80;;
49728;SDS011;35617;50.714;7.114;2022-08-30T14:09:06;5.45;;;3.00;;
49728;SDS011;35617;50.714;7.114;2022-08-30T14:11:34;6.40;;;2.88;;
49728;SDS011;35617;50.714;7.114;2022-08-30T14:14:00;6.75;;;2.83;;
49728;SDS011;35617;50.714;7.114;2022-08-30T14:16:26;6.78;;;3.00;;
49728;SDS011;35617;50.714;7.114;2022-08-30T14:18:52;6.53;;;3.20;;
49728;SDS011;35617;50.714;7.114;2022-08-30T14:21:18;5.20;;;2.95;;
49728;SDS011;35617;50.714;7.114;2022-08-30T14:23:44;7.07;;;3.10;;
49728;SDS011;35617;50.714;7.114;2022-08-30T14:26:11;4.88;;;2.72;;
49728;SDS011;35617;50.714;7.114;2022-08-30T14:28:40;6.18;;;3.15;;
49728;SDS011;35617;50.714;7.114;2022-08-30T14:31:06;7.15;;;2.78;;
49728;SDS011;35617;50.714;7.114;2022-08-30T14:33:32;5.80;;;2.90;;
49728;SDS011;35617;50.714;7.114;2022-08-30T14:35:58;8.13;;;2.97;;
49728;SDS011;35617;50.714;7.114;2022-08-30T14:38:23;6.70;;;2.80;;
49728;SDS011;35617;50.714;7.114;2022-08-30T14:40:49;7.35;;;3.25;;
49728;SDS011;35617;50.714;7.114;2022-08-30T14:43:14;5.82;;;3.20;;
49728;SDS011;35617;50.714;7.114;2022-08-30T14:45:40;8.82;;;3.00;;
49728;SDS011;35617;50.714;7.114;2022-08-30T14:48:06;5.78;;;3.05;;
49728;SDS011;35617;50.714;7.114;2022-08-30T14:50:36;6.43;;;2.75;;
49728;SDS011;35617;50.714;7.114;2022-08-30T14:53:02;6.93;;;3.25;;
49728;SDS011;35617;50.714;7.114;2022-08-30T14:55:28;7.43;;;2.75;;
49728;SDS011;35617;50.714;7.114;2022-08-30T14:57:56;6.45;;;3.35;;
49728;SDS011;35617;50.714;7.114;2022-08-30T15:00:22;6.97;;;3.30;;
49728;SDS011;35617;50.714;7.114;2022-08-30T15:02:47;7.20;;;2.53;;
49728;SDS011;35617;50.714;7.114;2022-08-30T15:05:13;6.32;;;3.28;;
49728;SDS011;35617;50.714;7.114;2022-08-30T15:07:39;7.72;;;3.05;;
49728;SDS011;35617;50.714;7.114;2022-08-30T15:10:05;5.03;;;3.10;;
49728;SDS011;35617;50.714;7.114;2022-08-30T15:12:32;4.97;;;2.63;;
49728;SDS011;35617;50.714;7.114;2022-08-30T15:14:58;7.85;;;3.25;;
49728;SDS011;35617;50.714;7.114;2022-08-30T15:17:23;6.63;;;3.10;;
49728;SDS011;35617;50.714;7.114;2022-08-30T15:19:49;6.45;;;3.13;;
49728;SDS011;35617;50.714;7.114;2022-08-30T15:22:15;5.85;;;2.78;;
49728;SDS011;35617;50.714;7.114;2022-08-30T15:24:41;5.18;;;3.00;;
49728;SDS011;35617;50.714;7.114;2022-08-30T15:27:07;5.55;;;2.83;;
49728;SDS011;35617;50.714;7.114;2022-08-30T15:29:33;7.25;;;4.00;;
49728;SDS011;35617;50.714;7.114;2022-08-30T15:31:59;6.40;;;3.63;;
49728;SDS011;35617;50.714;7.114;2022-08-30T15:34:27;7.35;;;3.47;;
49728;SDS011;35617;50.714;7.114;2022-08-30T15:36:54;8.93;;;3.15;;
49728;SDS011;35617;50.714;7.114;2022-08-30T15:39:20;7.03;;;3.13;;
49728;SDS011;35617;50.714;7.114;2022-08-30T15:41:46;9.50;;;3.42;;
49728;SDS011;35617;50.714;7.114;2022-08-30T15:44:13;8.23;;;3.30;;
49728;SDS011;35617;50.714;7.114;2022-08-30T15:46:40;5.13;;;3.08;;
49728;SDS011;35617;50.714;7.114;2022-08-30T15:49:18;7.93;;;3.22;;
49728;SDS011;35617;50.714;7.114;2022-08-30T15:51:46;5.75;;;3.00;;
49728;SDS011;35617;50.714;7.114;2022-08-30T15:54:14;6.97;;;3.03;;
49728;SDS011;35617;50.714;7.114;2022-08-30T15:56:41;5.68;;;3.00;;
49728;SDS011;35617;50.714;7.114;2022-08-30T15:59:07;7.53;;;3.00;;
49728;SDS011;35617;50.714;7.114;2022-08-30T16:01:34;5.03;;;2.72;;
49728;SDS011;35617;50.714;7.114;2022-08-30T16:04:00;7.03;;;3.40;;
49728;SDS011;35617;50.714;7.114;2022-08-30T16:06:27;7.88;;;3.08;;
49728;SDS011;35617;50.714;7.114;2022-08-30T16:08:56;6.50;;;3.05;;
49728;SDS011;35617;50.714;7.114;2022-08-30T16:11:22;4.68;;;2.80;;
49728;SDS011;35617;50.714;7.114;2022-08-30T16:13:49;7.13;;;3.58;;
49728;SDS011;35617;50.714;7.114;2022-08-30T16:16:15;5.45;;;2.92;;